Time;durP1;ratioP1;P1;durP2;ratioP2;P2;SDS_P1;SDS_P2;PMS_P1;PMS_P2;Temp;Humidity;BMP_temperature;BMP_pressure;BME280_temperature;BME280_humidity;BME280_pressure;Samples;Min_cycle;Max_cycle;Signal;HPM_P1;HPM_P2
2022/05/02 00:00:46;;;;;;;;;;;;;;;9.74;100.00;98706.47;10475801;28;20092;-58
2022/05/02 00:05:49;;;;;;;;;;;;;;;9.77;100.00;98706.19;10474379;28;19939;-56
2022/05/02 00:10:52;;;;;;;;;;;;;;;9.75;100.00;98696.56;10478093;28;19933;-59
2022/05/02 00:15:56;;;;;;;;;;;;;;;9.75;100.00;98697.41;10479786;28;19932;-57
2022/05/02 00:20:59;;;;;;;;;;;;;;;9.78;100.00;98675.59;10486675;28;20381;-62
2022/05/02 00:26:02;;;;;;;;;;;;;;;9.78;100.00;98680.09;10309350;28;5001009;-61
2022/05/02 00:31:06;;;;;;;;;;;;;;;9.78;100.00;98670.22;10483434;28;21247;-56
2022/05/02 00:36:09;;;;;;;;;;;;;;;9.67;100.00;98668.56;10487135;28;19939;-61
2022/05/02 00:41:12;;;;;;;;;;;;;;;9.64;100.00;98660.78;10488412;28;19939;-58
2022/05/02 00:46:21;;;;;;;;;;;;;;;9.59;100.00;98659.53;10486543;28;20404;-57
2022/05/02 00:51:55;;;;;;;;;;;;;;;9.50;100.00;98650.53;10507670;28;20383;-59
2022/05/02 00:57:23;;;;;;;;;;;;;;;9.42;100.00;98662.03;10551505;28;19924;-62
2022/05/02 01:02:29;;;;;;;;;;;;;;;9.39;100.00;98654.25;10548334;28;19944;-53
2022/05/02 01:07:32;;;;;;;;;;;;;;;9.36;100.00;98659.91;10547533;28;19924;-56
2022/05/02 01:12:35;;;;;;;;;;;;;;;9.31;100.00;98659.53;10535589;28;19939;-55
2022/05/02 01:17:39;;;;;;;;;;;;;;;9.28;100.00;98662.50;10499563;28;19932;-59
2022/05/02 01:22:44;;;;;;;;;;;;;;;9.15;100.00;98649.41;10482290;28;21388;-59
2022/05/02 01:27:47;;;;;;;;;;;;;;;9.14;100.00;98651.22;10482433;28;19932;-59
2022/05/02 01:32:50;;;;;;;;;;;;;;;9.10;100.00;98649.84;10473938;28;20055;-57
2022/05/02 01:37:54;;;;;;;;;;;;;;;9.00;100.00;98646.31;10480488;28;20648;-60
2022/05/02 01:42:57;;;;;;;;;;;;;;;8.92;100.00;98645.22;10481957;28;19990;-54
2022/05/02 01:48:01;;;;;;;;;;;;;;;8.88;100.00;98641.09;10480373;28;19960;-59
2022/05/02 01:53:05;;;;;;;;;;;;;;;8.84;100.00;98661.22;10478816;28;19939;-58
2022/05/02 01:58:08;;;;;;;;;;;;;;;8.74;100.00;98646.97;10477487;28;20066;-60
2022/05/02 02:03:11;;;;;;;;;;;;;;;8.61;100.00;98649.94;10479964;28;20453;-57
2022/05/02 02:08:16;;;;;;;;;;;;;;;8.48;100.00;98650.22;10482471;28;19933;-61
2022/05/02 02:13:19;;;;;;;;;;;;;;;8.42;100.00;98648.06;10476692;28;19932;-63
2022/05/02 02:18:22;;;;;;;;;;;;;;;8.40;100.00;98652.75;10477076;28;20328;-61
2022/05/02 02:23:26;;;;;;;;;;;;;;;8.28;100.00;98650.22;10477038;28;20424;-57
2022/05/02 02:28:29;;;;;;;;;;;;;;;8.25;100.00;98646.94;10477642;28;20549;-58
2022/05/02 02:33:32;;;;;;;;;;;;;;;8.13;100.00;98651.59;10478698;28;19939;-62
2022/05/02 02:38:36;;;;;;;;;;;;;;;8.02;100.00;98642.69;10476940;28;19939;-58
2022/05/02 02:43:39;;;;;;;;;;;;;;;7.98;100.00;98633.22;10482383;28;20578;-57
2022/05/02 02:48:42;;;;;;;;;;;;;;;7.93;100.00;98629.25;10475782;28;20025;-55
2022/05/02 02:53:46;;;;;;;;;;;;;;;7.81;100.00;98631.25;10475475;28;21226;-56
2022/05/02 02:58:49;;;;;;;;;;;;;;;7.76;100.00;98628.94;10477037;28;20019;-59
2022/05/02 03:03:52;;;;;;;;;;;;;;;7.67;100.00;98627.97;10479363;28;20039;-55
2022/05/02 03:08:57;;;;;;;;;;;;;;;7.52;100.00;98624.81;10478946;28;19955;-60
2022/05/02 03:13:59;;;;;;;;;;;;;;;7.50;100.00;98628.59;10477902;28;20404;-56
2022/05/02 03:19:03;;;;;;;;;;;;;;;7.49;100.00;98632.28;10477900;28;20001;-58
2022/05/02 03:24:08;;;;;;;;;;;;;;;7.39;100.00;98617.00;10476868;28;20023;-55
2022/05/02 03:29:11;;;;;;;;;;;;;;;7.34;100.00;98627.31;10477514;28;20017;-58
2022/05/02 03:34:15;;;;;;;;;;;;;;;7.31;100.00;98618.66;10473985;28;21096;-56
2022/05/02 03:39:20;;;;;;;;;;;;;;;7.25;100.00;98620.91;10475692;28;19932;-61
2022/05/02 03:44:23;;;;;;;;;;;;;;;7.24;100.00;98621.91;10479150;28;20367;-60
2022/05/02 03:49:25;;;;;;;;;;;;;;;7.14;100.00;98610.31;10476562;28;20019;-61
2022/05/02 03:54:29;;;;;;;;;;;;;;;7.12;100.00;98620.31;10486523;28;20023;-60
2022/05/02 03:59:33;;;;;;;;;;;;;;;7.05;100.00;98614.63;10480560;28;20080;-58
2022/05/02 04:04:36;;;;;;;;;;;;;;;6.97;100.00;98616.28;10482681;28;19933;-58
2022/05/02 04:09:41;;;;;;;;;;;;;;;6.97;100.00;98605.56;10480114;28;20017;-60
2022/05/02 04:14:45;;;;;;;;;;;;;;;6.95;100.00;98608.38;10484213;28;19940;-58
2022/05/02 04:19:49;;;;;;;;;;;;;;;6.91;100.00;98612.28;10483021;28;19940;-62
2022/05/02 04:24:53;;;;;;;;;;;;;;;6.88;100.00;98613.41;10485965;28;19933;-57
2022/05/02 04:29:56;;;;;;;;;;;;;;;6.83;100.00;98612.13;10480457;28;20017;-57
2022/05/02 04:34:58;;;;;;;;;;;;;;;6.74;100.00;98617.31;10478571;28;20023;-55
2022/05/02 04:40:03;;;;;;;;;;;;;;;6.61;100.00;98627.34;10487582;28;20027;-58
2022/05/02 04:45:07;;;;;;;;;;;;;;;6.58;100.00;98624.94;10484819;28;19954;-60
2022/05/02 04:50:10;;;;;;;;;;;;;;;6.57;100.00;98624.09;10483215;28;19955;-61
2022/05/02 04:55:14;;;;;;;;;;;;;;;6.62;100.00;98631.75;10484562;28;19932;-60
2022/05/02 05:00:17;;;;;;;;;;;;;;;6.67;100.00;98626.81;10482609;28;19932;-58
2022/05/02 05:05:20;;;;;;;;;;;;;;;6.73;100.00;98629.00;10479198;28;20097;-57
2022/05/02 05:10:24;;;;;;;;;;;;;;;6.81;100.00;98627.47;10479749;28;19951;-61
2022/05/02 05:20:58;;;;;;;;;;;;;;;6.91;100.00;98634.59;10482507;28;20312;-57
2022/05/02 05:26:16;;;;;;;;;;;;;;;6.96;100.00;98627.97;10482097;28;20309;-60
2022/05/02 05:31:30;;;;;;;;;;;;;;;6.97;100.00;98637.69;10480084;28;19939;-57
2022/05/02 05:36:35;;;;;;;;;;;;;;;6.92;100.00;98641.66;10481891;28;19931;-62
2022/05/02 05:41:50;;;;;;;;;;;;;;;6.90;100.00;98642.72;10465004;28;19940;-62
2022/05/02 05:47:05;;;;;;;;;;;;;;;6.93;100.00;98642.47;10476701;28;19990;-60
2022/05/02 05:52:12;;;;;;;;;;;;;;;6.95;100.00;98645.88;10480418;28;20019;-56
2022/05/02 05:57:24;;;;;;;;;;;;;;;6.99;100.00;98633.94;10496570;28;19939;-58
2022/05/02 06:02:33;;;;;;;;;;;;;;;7.12;100.00;98646.22;10481763;28;19933;-60
2022/05/02 06:07:38;;;;;;;;;;;;;;;7.25;100.00;98642.38;10479818;28;20342;-62
2022/05/02 06:12:43;;;;;;;;;;;;;;;7.42;100.00;98644.53;10480539;28;20032;-61
2022/05/02 06:23:10;;;;;;;;;;;;;;;7.79;100.00;98643.94;10454755;28;19939;-62
2022/05/02 06:28:15;;;;;;;;;;;;;;;7.98;100.00;98641.28;10477877;28;19932;-56
2022/05/02 06:33:20;;;;;;;;;;;;;;;8.06;100.00;98645.09;10480865;28;20019;-53
2022/05/02 06:38:30;;;;;;;;;;;;;;;8.14;100.00;98643.41;10477688;28;20059;-58
2022/05/02 06:43:38;;;;;;;;;;;;;;;8.26;100.00;98632.53;10479089;28;19975;-57
2022/05/02 06:48:42;;;;;;;;;;;;;;;8.43;100.00;98626.47;10476622;28;19939;-62
2022/05/02 06:54:03;;;;;;;;;;;;;;;8.59;100.00;98625.03;10489239;28;19932;-62
2022/05/02 06:59:15;;;;;;;;;;;;;;;8.80;100.00;98614.13;10480767;28;19939;-61
2022/05/02 07:04:27;;;;;;;;;;;;;;;9.09;100.00;98618.56;10476398;28;20400;-61
2022/05/02 07:09:32;;;;;;;;;;;;;;;9.36;100.00;98611.50;10477045;28;19992;-60
2022/05/02 07:14:44;;;;;;;;;;;;;;;9.52;100.00;98617.09;10478030;28;19932;-61
2022/05/02 07:19:54;;;;;;;;;;;;;;;9.72;100.00;98616.97;10492878;28;19932;-60
2022/05/02 07:25:03;;;;;;;;;;;;;;;9.97;100.00;98615.41;10476640;28;19959;-61
2022/05/02 07:30:09;;;;;;;;;;;;;;;10.26;100.00;98614.34;10474218;28;19966;-59
2022/05/02 07:35:14;;;;;;;;;;;;;;;10.52;100.00;98618.97;10478156;28;19939;-59
2022/05/02 07:40:20;;;;;;;;;;;;;;;10.75;100.00;98613.94;10474947;28;21463;-61
2022/05/02 07:45:27;;;;;;;;;;;;;;;11.17;100.00;98612.31;10476279;28;20668;-61
2022/05/02 07:50:30;;;;;;;;;;;;;;;11.48;100.00;98601.00;10478172;28;19942;-57
2022/05/02 07:55:34;;;;;;;;;;;;;;;11.80;100.00;98606.66;10477554;28;19928;-58
2022/05/02 08:00:38;;;;;;;;;;;;;;;12.17;100.00;98602.72;10475607;28;20019;-58
2022/05/02 08:05:45;;;;;;;;;;;;;;;12.41;100.00;98598.31;10474085;28;19959;-58
2022/05/02 08:10:57;;;;;;;;;;;;;;;12.66;100.00;98601.03;10475446;28;19933;-57
2022/05/02 08:16:03;;;;;;;;;;;;;;;12.88;100.00;98599.47;10477495;28;19932;-58
2022/05/02 08:21:13;;;;;;;;;;;;;;;13.15;100.00;98602.81;10475074;28;20303;-58
2022/05/02 08:31:52;;;;;;;;;;;;;;;13.56;100.00;98600.81;10479055;28;20569;-57
2022/05/02 08:36:56;;;;;;;;;;;;;;;13.69;100.00;98596.72;10473002;28;19936;-60
2022/05/02 08:42:14;;;;;;;;;;;;;;;13.89;100.00;98593.53;10482354;28;19928;-57
2022/05/02 08:47:31;;;;;;;;;;;;;;;14.10;100.00;98592.91;10479369;28;19939;-57
2022/05/02 08:52:48;;;;;;;;;;;;;;;14.26;95.43;98581.94;10477398;28;20688;-56
2022/05/02 08:58:08;;;;;;;;;;;;;;;14.42;95.37;98574.72;10484740;28;19933;-57
2022/05/02 09:03:32;;;;;;;;;;;;;;;14.56;92.10;98581.19;10483663;28;19933;-57
2022/05/02 09:09:02;;;;;;;;;;;;;;;14.65;87.97;98580.06;10473255;28;20002;-60
2022/05/02 09:14:22;;;;;;;;;;;;;;;14.84;89.77;98570.59;10402410;28;19943;-54
2022/05/02 09:19:35;;;;;;;;;;;;;;;14.95;80.60;98569.31;10361334;28;19933;-55
2022/05/02 09:25:00;;;;;;;;;;;;;;;15.03;79.59;98561.09;10405694;28;20450;-60
2022/05/02 09:30:34;;;;;;;;;;;;;;;15.23;80.96;98565.94;10404340;28;20031;-61
2022/05/02 09:35:44;;;;;;;;;;;;;;;15.31;78.28;98557.72;10405060;28;19933;-56
2022/05/02 09:40:48;;;;;;;;;;;;;;;15.41;80.13;98552.84;10421082;28;20612;-61
2022/05/02 09:51:40;;;;;;;;;;;;;;;15.65;74.71;98547.25;10402845;28;19928;-54
2022/05/02 09:56:46;;;;;;;;;;;;;;;15.89;74.71;98535.25;10396622;28;21302;-58
2022/05/02 10:01:49;;;;;;;;;;;;;;;15.95;73.95;98523.59;10417520;28;19933;-60
2022/05/02 10:06:53;;;;;;;;;;;;;;;16.08;73.86;98513.88;10404778;28;19939;-61
2022/05/02 10:12:13;;;;;;;;;;;;;;;16.33;75.40;98517.06;10403329;28;20091;-56
2022/05/02 10:17:22;;;;;;;;;;;;;;;16.48;78.18;98514.22;10397322;28;20021;-58
2022/05/02 10:22:30;;;;;;;;;;;;;;;16.40;75.74;98504.34;10401439;28;19940;-60
2022/05/02 10:27:41;;;;;;;;;;;;;;;16.40;71.87;98506.22;10399469;28;19939;-59
2022/05/02 10:32:56;;;;;;;;;;;;;;;16.58;76.06;98503.03;10401627;28;19937;-59
2022/05/02 10:37:59;;;;;;;;;;;;;;;16.53;71.59;98500.88;10400533;28;19979;-56
2022/05/02 10:43:04;;;;;;;;;;;;;;;16.72;74.41;98496.59;10402406;28;19961;-58
2022/05/02 10:48:23;;;;;;;;;;;;;;;16.76;68.58;98492.47;10411530;28;20014;-59
2022/05/02 10:53:52;;;;;;;;;;;;;;;16.93;74.47;98489.44;10433230;28;19932;-58
2022/05/02 10:58:55;;;;;;;;;;;;;;;17.14;71.90;98485.78;10427626;28;20648;-58
2022/05/02 11:04:07;;;;;;;;;;;;;;;17.35;74.00;98481.25;10435815;28;20017;-57
2022/05/02 11:09:13;;;;;;;;;;;;;;;17.49;70.12;98465.81;10430210;28;19929;-59
2022/05/02 11:14:23;;;;;;;;;;;;;;;17.51;70.24;98469.19;10436783;28;19939;-56
2022/05/02 11:25:01;;;;;;;;;;;;;;;17.66;62.82;98463.56;10434975;28;20075;-59
2022/05/02 11:30:06;;;;;;;;;;;;;;;17.65;60.95;98450.97;10434073;28;19940;-59
2022/05/02 11:35:13;;;;;;;;;;;;;;;17.83;61.79;98455.81;10433963;28;20293;-61
2022/05/02 11:40:17;;;;;;;;;;;;;;;17.81;57.73;98450.59;10434154;28;19932;-56
2022/05/02 11:45:28;;;;;;;;;;;;;;;17.76;56.72;98444.91;10432316;28;19958;-57
2022/05/02 11:50:40;;;;;;;;;;;;;;;17.93;57.73;98447.25;10432591;28;19994;-59
2022/05/02 11:55:44;;;;;;;;;;;;;;;18.06;57.71;98444.53;10433263;28;19939;-59
2022/05/02 12:00:50;;;;;;;;;;;;;;;18.41;61.25;98435.31;10432440;28;20035;-55
2022/05/02 12:05:56;;;;;;;;;;;;;;;18.63;62.21;98444.09;10431370;28;20400;-59
2022/05/02 12:11:06;;;;;;;;;;;;;;;18.82;58.46;98436.88;10433044;28;20024;-60
2022/05/02 12:16:09;;;;;;;;;;;;;;;18.96;56.03;98423.22;10440150;28;19933;-56
2022/05/02 12:21:17;;;;;;;;;;;;;;;19.20;56.34;98425.22;10438364;28;19940;-60
2022/05/02 12:26:20;;;;;;;;;;;;;;;19.27;54.78;98418.91;10441225;28;19932;-56
2022/05/02 12:31:28;;;;;;;;;;;;;;;19.21;51.72;98420.63;10441736;28;19933;-57
2022/05/02 12:36:51;;;;;;;;;;;;;;;19.40;53.86;98418.84;10441051;28;19940;-60
2022/05/02 12:41:55;;;;;;;;;;;;;;;19.67;52.30;98421.38;10441657;28;19929;-60
2022/05/02 12:47:04;;;;;;;;;;;;;;;20.03;50.88;98406.22;10438670;28;19933;-62
2022/05/02 12:52:08;;;;;;;;;;;;;;;20.15;49.00;98409.91;10442136;28;19954;-59
2022/05/02 13:02:38;;;;;;;;;;;;;;;20.72;49.35;98397.97;10439816;28;20029;-60
2022/05/02 13:07:47;;;;;;;;;;;;;;;20.80;48.71;98396.03;10434635;28;20410;-58
2022/05/02 13:12:54;;;;;;;;;;;;;;;20.86;46.85;98387.75;10435375;28;20071;-60
2022/05/02 13:17:57;;;;;;;;;;;;;;;20.99;44.78;98385.91;10437779;28;20016;-57
2022/05/02 13:23:20;;;;;;;;;;;;;;;;;;10432388;28;19936;-62
2022/05/02 13:28:28;;;;;;;;;;;;;;;21.31;43.76;98380.22;10436761;28;19933;-63
2022/05/02 13:33:34;;;;;;;;;;;;;;;21.40;44.17;98360.44;10438963;28;20037;-64
2022/05/02 13:38:43;;;;;;;;;;;;;;;21.54;45.01;98358.34;10438461;28;19943;-62
2022/05/02 13:43:53;;;;;;;;;;;;;;;21.65;41.92;98342.19;10441321;28;19964;-64
2022/05/02 13:49:03;;;;;;;;;;;;;;;22.14;46.05;98342.84;10436381;28;20002;-58
2022/05/02 13:54:27;;;;;;;;;;;;;;;22.51;45.12;98347.25;10437456;28;19940;-58
2022/05/02 13:59:34;;;;;;;;;;;;;;;22.56;43.40;98341.88;10436095;28;19936;-64
2022/05/02 14:04:40;;;;;;;;;;;;;;;22.68;41.70;98330.84;10435734;28;19943;-63
2022/05/02 14:09:49;;;;;;;;;;;;;;;22.31;43.85;98342.97;10435717;28;20026;-60
2022/05/02 14:14:55;;;;;;;;;;;;;;;22.60;42.71;98336.75;10434873;28;19932;-62
2022/05/02 14:20:13;;;;;;;;;;;;;;;22.76;40.81;98330.47;10434343;28;19929;-62
2022/05/02 14:25:25;;;;;;;;;;;;;;;23.05;39.44;98322.25;10436429;28;19939;-61
2022/05/02 14:30:37;;;;;;;;;;;;;;;23.17;41.40;98321.38;10430845;28;19932;-61
2022/05/02 14:35:42;;;;;;;;;;;;;;;23.38;39.35;98312.44;10432844;28;19977;-61
2022/05/02 14:40:45;;;;;;;;;;;;;;;23.63;36.02;98311.22;10417595;28;20073;-64
2022/05/02 14:45:50;;;;;;;;;;;;;;;23.45;37.84;98305.97;10435413;28;19933;-62
2022/05/02 14:50:59;;;;;;;;;;;;;;;23.87;38.81;98307.47;10437594;28;19939;-58
2022/05/02 14:56:02;;;;;;;;;;;;;;;23.80;39.07;98300.22;10433253;28;19932;-59
2022/05/02 15:01:10;;;;;;;;;;;;;;;24.01;38.48;98295.06;10432830;28;20436;-60
2022/05/02 15:06:16;;;;;;;;;;;;;;;24.08;39.28;98286.63;10430756;28;20011;-59
2022/05/02 15:11:26;;;;;;;;;;;;;;;24.20;37.82;98284.59;10434989;28;19932;-60
2022/05/02 15:16:37;;;;;;;;;;;;;;;24.27;39.38;98276.16;10434387;28;19932;-59
2022/05/02 15:21:41;;;;;;;;;;;;;;;24.09;39.01;98280.88;10435522;28;20416;-63
2022/05/02 15:26:50;;;;;;;;;;;;;;;24.39;39.41;98273.31;10435044;28;20393;-64
2022/05/02 15:37:22;;;;;;;;;;;;;;;24.49;37.49;98276.19;10430278;28;19941;-61
2022/05/02 15:42:24;;;;;;;;;;;;;;;24.23;37.76;98266.72;10429576;28;19944;-60
2022/05/02 15:47:36;;;;;;;;;;;;;;;24.33;38.85;98272.41;10432097;28;19956;-61
2022/05/02 15:52:57;;;;;;;;;;;;;;;23.96;38.14;98260.03;10432170;28;19932;-65
2022/05/02 15:58:00;;;;;;;;;;;;;;;24.22;38.56;98251.31;10431902;28;20828;-64
2022/05/02 16:03:16;;;;;;;;;;;;;;;24.31;39.96;98258.06;10431129;28;19936;-63
2022/05/02 16:13:42;;;;;;;;;;;;;;;23.87;40.24;98256.03;10426532;28;19933;-59
2022/05/02 16:18:49;;;;;;;;;;;;;;;23.81;40.03;98252.38;10435292;28;19932;-58
2022/05/02 16:23:57;;;;;;;;;;;;;;;23.53;40.98;98250.56;10434765;28;19986;-58
2022/05/02 16:29:01;;;;;;;;;;;;;;;23.27;41.65;98241.88;10441341;28;19933;-62
2022/05/02 16:34:05;;;;;;;;;;;;;;;23.27;42.29;98241.06;10433346;28;19939;-56
2022/05/02 16:39:10;;;;;;;;;;;;;;;23.22;42.22;98245.38;10432692;28;20019;-58
2022/05/02 16:44:13;;;;;;;;;;;;;;;23.04;42.83;98224.44;10433371;28;19932;-58
2022/05/02 16:49:17;;;;;;;;;;;;;;;22.87;43.12;98229.91;10427178;28;20289;-57
2022/05/02 16:54:23;;;;;;;;;;;;;;;23.06;43.10;98225.03;10434284;28;20078;-57
2022/05/02 16:59:26;;;;;;;;;;;;;;;23.00;43.70;98223.25;10435489;28;20040;-57
2022/05/02 17:04:30;;;;;;;;;;;;;;;22.78;43.63;98218.47;10442774;28;20229;-58
2022/05/02 17:09:33;;;;;;;;;;;;;;;22.49;43.41;98230.53;10441407;28;20515;-58
2022/05/02 17:14:37;;;;;;;;;;;;;;;22.51;42.71;98234.69;10442527;28;20027;-54
2022/05/02 17:19:41;;;;;;;;;;;;;;;22.42;43.65;98231.50;10450614;28;19955;-57
2022/05/02 17:24:47;;;;;;;;;;;;;;;22.22;43.31;98237.38;10437811;28;19967;-57
2022/05/02 17:29:53;;;;;;;;;;;;;;;21.94;44.42;98233.47;10438022;28;19932;-61
2022/05/02 17:35:00;;;;;;;;;;;;;;;21.69;43.57;98239.22;10435443;28;19940;-58
2022/05/02 17:40:21;;;;;;;;;;;;;;;21.43;45.04;98235.84;10436924;28;19932;-62
2022/05/02 17:45:34;;;;;;;;;;;;;;;21.04;46.38;98243.63;10440404;28;20031;-54
2022/05/02 17:50:39;;;;;;;;;;;;;;;20.66;46.92;98236.53;10433140;28;20022;-59
2022/05/02 17:55:43;;;;;;;;;;;;;;;20.31;47.29;98241.59;10439207;28;20883;-63
2022/05/02 18:00:58;;;;;;;;;;;;;;;19.77;48.12;98235.84;10439072;28;20456;-63
2022/05/02 18:06:02;;;;;;;;;;;;;;;19.30;48.00;98244.50;10436504;28;20007;-63
2022/05/02 18:11:07;;;;;;;;;;;;;;;18.90;47.70;98239.28;10438681;28;20031;-60
2022/05/02 18:16:14;;;;;;;;;;;;;;;18.52;48.19;98243.69;10441562;28;20013;-62
2022/05/02 18:21:19;;;;;;;;;;;;;;;18.19;48.90;98250.13;10435960;28;19933;-63
2022/05/02 18:26:23;;;;;;;;;;;;;;;17.86;50.19;98253.75;10437504;28;19972;-64
2022/05/02 18:31:27;;;;;;;;;;;;;;;17.55;50.63;98253.38;10430188;28;19933;-62
2022/05/02 18:36:36;;;;;;;;;;;;;;;17.36;51.06;98265.09;10435460;28;19932;-62
2022/05/02 18:41:49;;;;;;;;;;;;;;;17.26;51.93;98265.53;10435046;28;19933;-61
2022/05/02 18:57:39;;;;;;;;;;;;;;;16.77;53.63;98281.09;10435223;28;21276;-58
2022/05/02 19:02:44;;;;;;;;;;;;;;;16.54;54.67;98276.81;10428143;28;20058;-60
2022/05/02 19:07:49;;;;;;;;;;;;;;;16.27;55.70;98290.31;10431128;28;19940;-58
2022/05/02 19:12:53;;;;;;;;;;;;;;;16.10;56.37;98283.53;10431142;28;19932;-60
2022/05/02 19:17:57;;;;;;;;;;;;;;;16.04;57.26;98292.50;10433715;28;19955;-60
2022/05/02 19:23:10;;;;;;;;;;;;;;;15.94;58.23;98288.25;10430317;28;20522;-60
2022/05/02 19:28:14;;;;;;;;;;;;;;;15.86;59.68;98289.25;10430071;28;20076;-62
2022/05/02 19:33:21;;;;;;;;;;;;;;;15.75;59.92;98284.34;10431585;28;20027;-61
2022/05/02 19:43:53;;;;;;;;;;;;;;;15.52;61.73;98303.59;10433503;28;20356;-61
2022/05/02 19:48:56;;;;;;;;;;;;;;;15.47;63.01;98298.75;10432641;28;19959;-61
2022/05/02 19:54:01;;;;;;;;;;;;;;;15.38;64.33;98295.31;10431930;28;19943;-62
2022/05/02 19:59:04;;;;;;;;;;;;;;;15.24;66.81;98296.22;10431613;28;20128;-61
2022/05/02 20:04:07;;;;;;;;;;;;;;;15.16;68.15;98296.38;10428883;28;20473;-58
2022/05/02 20:09:11;;;;;;;;;;;;;;;15.07;69.21;98296.50;10412341;28;20035;-60
2022/05/02 20:14:15;;;;;;;;;;;;;;;14.97;70.95;98297.84;10428458;28;20027;-60
2022/05/02 20:19:18;;;;;;;;;;;;;;;14.84;73.34;98291.25;10430720;28;20067;-60
2022/05/02 20:24:23;;;;;;;;;;;;;;;14.73;75.19;98291.75;10430743;28;19955;-60
2022/05/02 20:29:26;;;;;;;;;;;;;;;14.60;77.08;98292.41;10429209;28;19933;-59
2022/05/02 20:39:52;;;;;;;;;;;;;;;14.33;82.41;98292.06;10436991;28;19933;-56
2022/05/02 20:44:56;;;;;;;;;;;;;;;14.23;83.82;98296.94;10440507;28;19936;-57
2022/05/02 20:49:59;;;;;;;;;;;;;;;14.24;81.64;98299.47;10445489;28;19932;-59
2022/05/02 20:55:04;;;;;;;;;;;;;;;14.20;80.07;98290.03;10451501;28;19933;-62
2022/05/02 21:00:08;;;;;;;;;;;;;;;14.13;78.60;98300.78;10440087;28;20413;-56
2022/05/02 21:05:11;;;;;;;;;;;;;;;14.12;79.54;98299.09;10439734;28;19941;-59
2022/05/02 21:10:15;;;;;;;;;;;;;;;14.00;89.05;98298.72;10436234;28;20025;-59
2022/05/02 21:15:23;;;;;;;;;;;;;;;13.73;93.80;98302.91;10439292;28;20026;-59
2022/05/02 21:20:33;;;;;;;;;;;;;;;13.57;93.48;98303.91;10435411;28;19925;-57
2022/05/02 21:25:41;;;;;;;;;;;;;;;13.62;93.51;98297.94;10436964;28;19986;-56
2022/05/02 21:30:53;;;;;;;;;;;;;;;13.54;97.68;98297.00;10438493;28;19933;-58
2022/05/02 21:35:57;;;;;;;;;;;;;;;13.40;100.00;98308.63;10438752;28;19936;-59
2022/05/02 21:41:01;;;;;;;;;;;;;;;13.43;100.00;98302.84;10436654;28;20475;-58
2022/05/02 21:46:04;;;;;;;;;;;;;;;13.23;100.00;98305.19;10434121;28;19933;-56
2022/05/02 21:51:06;;;;;;;;;;;;;;;13.08;100.00;98307.84;10437548;28;20066;-59
2022/05/02 21:56:11;;;;;;;;;;;;;;;13.12;100.00;98297.50;10431649;28;20051;-61
2022/05/02 22:01:13;;;;;;;;;;;;;;;13.10;100.00;98305.81;10435360;28;20459;-59
2022/05/02 22:06:16;;;;;;;;;;;;;;;13.07;100.00;98308.84;10434690;28;19933;-59
2022/05/02 22:11:21;;;;;;;;;;;;;;;12.98;100.00;98309.94;10434862;28;20448;-58
2022/05/02 22:16:24;;;;;;;;;;;;;;;12.78;100.00;98315.78;10436833;28;20023;-59
2022/05/02 22:21:27;;;;;;;;;;;;;;;12.58;100.00;98312.72;10434547;28;19932;-59
2022/05/02 22:26:31;;;;;;;;;;;;;;;12.35;100.00;98315.34;10452331;28;19976;-55
2022/05/02 22:31:36;;;;;;;;;;;;;;;12.21;100.00;98312.34;10433998;28;20412;-60
2022/05/02 22:36:38;;;;;;;;;;;;;;;12.00;100.00;98313.78;10437998;28;20405;-57
2022/05/02 22:41:43;;;;;;;;;;;;;;;11.82;100.00;98310.41;10436608;28;20020;-57
2022/05/02 22:46:46;;;;;;;;;;;;;;;11.74;100.00;98313.13;10435136;28;20428;-57
2022/05/02 22:51:48;;;;;;;;;;;;;;;11.61;100.00;98319.06;10436483;28;19938;-57
2022/05/02 22:56:53;;;;;;;;;;;;;;;11.47;100.00;98313.34;10431008;28;19941;-58
2022/05/02 23:01:57;;;;;;;;;;;;;;;11.52;100.00;98312.81;10448152;28;19941;-59
2022/05/02 23:07:09;;;;;;;;;;;;;;;11.38;100.00;98311.66;10445096;28;19932;-59
2022/05/02 23:12:15;;;;;;;;;;;;;;;11.24;100.00;98321.25;10434992;28;19964;-59
2022/05/02 23:17:18;;;;;;;;;;;;;;;10.99;100.00;98320.41;10435079;28;21184;-59
2022/05/02 23:22:21;;;;;;;;;;;;;;;10.71;100.00;98313.44;10432753;28;20612;-57
2022/05/02 23:27:26;;;;;;;;;;;;;;;10.70;100.00;98308.25;10428403;28;19933;-56
2022/05/02 23:32:33;;;;;;;;;;;;;;;10.71;100.00;98305.38;10433973;28;20026;-59
2022/05/02 23:37:43;;;;;;;;;;;;;;;10.71;100.00;98294.59;10431531;28;19938;-58
2022/05/02 23:42:48;;;;;;;;;;;;;;;10.67;100.00;98295.91;10427408;28;20022;-57
2022/05/02 23:47:57;;;;;;;;;;;;;;;10.62;100.00;98293.72;10433009;28;19932;-59
2022/05/02 23:53:02;;;;;;;;;;;;;;;10.51;100.00;98293.19;10435211;28;19933;-57
2022/05/02 23:58:20;;;;;;;;;;;;;;;10.43;100.00;98292.16;10434430;28;20013;-59
